• Join FlightAware (Why Join?)
  • Login
  • US Flag 
Trick or treat! (Boo!!) 
02:09PM EDT


 

Airport Tracker/Info


-or-


 

Live Flight TrackerFlight Track Log ✈ JBU462 ✈ 26-Feb-2013 ✈ KRSW - KBOS

Flight Track Log - Related Links

Times and Time Zones

All times are in EST time to prevent confusion due to time zone crossing. See the JBU462 flight status page for this flight to view local times or setup timezone preferences in your user account.

Time Position Orientation Groundspeed Altitude Reporting Facility
EST Latitude Longitude Course Direction KTS MPH feet Rate Location/Type
05:17PM 28.1208 -81.6900 35° Northeast  Level FlightAware Approximate
05:17PM 26.5297 -81.9064 15° North 279 321 6,700  Level Miami Center
05:18PM 28.2136 -81.6137 36° Northeast  Level FlightAware Approximate
05:18PM 26.6770 -81.9140 36° Northeast 354 407 10,100  Level FlightAware
05:19PM 26.7460 -81.9020 North 375 432 11,500 2,160 Climbing FlightAware
05:20PM 26.8190 -81.8690 22° Northeast 387 445 13,200 1,980 Climbing FlightAware
05:21PM 26.9130 -81.8160 27° Northeast 404 465 14,800 1,560 Climbing FlightAware
05:21PM 26.9980 -81.7910 15° North 433 498 15,800 1,680 Climbing FlightAware
05:22PM 27.0740 -81.7690 14° North 435 501 17,200 1,980 Climbing FlightAware
05:23PM 27.1530 -81.7460 15° North 431 496 18,500 1,740 Climbing FlightAware
05:23PM 27.2430 -81.7200 14° North 450 518 19,700 1,440 Climbing FlightAware
05:24PM 27.3270 -81.6960 14° North 462 532 20,600 1,380 Climbing FlightAware
05:25PM 27.4090 -81.6710 15° North 462 532 21,600 1,620 Climbing FlightAware
05:26PM 27.5060 -81.6430 14° North 466 536 22,900 1,740 Climbing FlightAware
05:26PM 27.5890 -81.6180 15° North 466 536 24,100 1,320 Climbing FlightAware
05:27PM 27.6860 -81.5900 14° North 484 557 24,800 960 Climbing FlightAware
05:28PM 27.7750 -81.5640 14° North 488 562 25,500 1,080 Climbing FlightAware
05:28PM 27.8740 -81.5580 North 481 554 26,400 1,200 Climbing FlightAware
05:29PM 27.9640 -81.5570 North 484 557 27,200 1,200 Climbing FlightAware
05:30PM 28.0540 -81.5550 North 480 552 28,000 1,200 Climbing FlightAware
05:30PM 28.1550 -81.5530 North 481 554 28,900 1,080 Climbing FlightAware
05:31PM 28.2470 -81.5510 North 485 558 29,600 840 Climbing FlightAware
05:32PM 28.3500 -81.5490 North 499 574 30,100 840 Climbing FlightAware
05:33PM 28.4440 -81.5470 North 499 574 30,800 960 Climbing FlightAware
05:33PM 28.5310 -81.5460 North 498 573 31,400 960 Climbing FlightAware
05:34PM 28.6380 -81.5440 North 496 571 32,200 900 Climbing FlightAware
05:35PM 28.7310 -81.5420 North 499 574 32,700 840 Climbing FlightAware
05:35PM 28.8320 -81.5400 North 496 571 33,400 1,020 Climbing FlightAware
05:36PM 28.9260 -81.5380 North 485 558 34,200 960 Climbing FlightAware
05:37PM 29.0070 -81.5360 North 483 556 34,700 720 Climbing FlightAware
05:37PM 29.1160 -81.5340 North 481 554 35,300 1,020 Climbing FlightAware
05:38PM 29.2080 -81.5320 North 480 552 36,200 1,020 Climbing FlightAware
05:39PM 29.3260 -81.5300 North 454 522 37,000 420 Climbing FlightAware
05:40PM 29.4290 -81.5280 North 467 537 37,000  Level FlightAware
05:41PM 29.5390 -81.5260 North 454 522 37,000  Level FlightAware
05:41PM 29.6120 -81.5240 North 450 518 37,000  Level FlightAware
05:43PM 29.8060 -81.5210 North 452 520 37,000  Level FlightAware
05:44PM 29.9400 -81.5180 North 448 516 37,000 -420 Level FlightAware
05:45PM 30.0520 -81.5160 North 447 514 36,300 -960 Descending FlightAware
05:45PM 30.1390 -81.5140 North 447 514 35,600 -900 Descending FlightAware
05:46PM 30.2200 -81.5120 North 455 524 35,100 -360 Descending FlightAware
05:47PM 30.3170 -81.5110 North 473 544 35,100 180 Level FlightAware
05:47PM 30.4070 -81.5060 North 487 560 35,400 420 Climbing FlightAware
05:48PM 30.4990 -81.4970 North 490 564 35,700 600 Climbing FlightAware
05:49PM 30.6000 -81.4890 North 486 559 36,300 600 Climbing FlightAware
05:50PM 30.6910 -81.4810 North 489 563 36,600 480 Climbing FlightAware
05:50PM 30.7940 -81.4720 North 487 560 37,000 240 Climbing FlightAware
05:51PM 30.8830 -81.4370 19° North 539 620 37,000  Level FlightAware
05:52PM 30.9660 -81.3790 31° Northeast 546 628 37,000  Level FlightAware
05:52PM 31.0650 -81.3100 31° Northeast 547 629 37,000  Level FlightAware
05:53PM 31.1520 -81.2500 31° Northeast 549 632 37,000  Level FlightAware
05:54PM 31.2410 -81.1890 30° Northeast 550 633 37,000  Level FlightAware
05:54PM 31.3380 -81.1230 30° Northeast 553 636 37,000  Level FlightAware
05:55PM 31.4260 -81.0630 30° Northeast 555 639 37,000  Level FlightAware
05:56PM 31.5280 -80.9930 30° Northeast 558 642 37,000  Level FlightAware
05:57PM 31.6160 -80.9320 31° Northeast 558 642 37,000  Level FlightAware
05:57PM 31.7060 -80.8700 30° Northeast 560 644 37,000  Level FlightAware
05:58PM 31.8090 -80.7990 30° Northeast 560 644 37,000  Level FlightAware
05:59PM 31.8960 -80.7390 30° Northeast 561 646 37,000  Level FlightAware
05:59PM 31.9980 -80.6680 31° Northeast 565 650 37,000  Level FlightAware
06:00PM 32.0890 -80.6050 30° Northeast 567 652 37,000  Level FlightAware
06:01PM 32.1870 -80.5360 31° Northeast 569 655 37,000  Level FlightAware
06:01PM 32.2800 -80.4720 30° Northeast 567 652 37,000  Level FlightAware
06:02PM 32.3720 -80.4070 31° Northeast 569 655 37,000  Level FlightAware
06:03PM 32.4730 -80.3360 31° Northeast 570 656 37,000  Level FlightAware
06:04PM 32.5630 -80.2720 31° Northeast 570 656 37,000  Level FlightAware
06:04PM 32.6660 -80.1990 31° Northeast 569 655 37,000  Level FlightAware
06:05PM 32.7570 -80.1350 31° Northeast 569 655 37,000  Level FlightAware
06:06PM 32.8470 -80.0720 30° Northeast 570 656 37,000  Level FlightAware
06:06PM 32.9450 -80.0010 31° Northeast 568 654 37,000  Level FlightAware
06:07PM 33.0370 -79.9340 31° Northeast 568 654 37,000  Level FlightAware
06:08PM 33.1220 -79.8720 31° Northeast 569 655 37,000  Level FlightAware
06:08PM 33.2270 -79.7950 32° Northeast 569 655 37,000  Level FlightAware
06:09PM 33.3160 -79.7300 31° Northeast 569 655 37,000  Level FlightAware
06:10PM 33.4190 -79.6550 31° Northeast 568 654 37,000  Level FlightAware
06:11PM 33.5080 -79.5890 32° Northeast 565 650 37,000  Level FlightAware
06:11PM 33.6200 -79.5060 32° Northeast 563 648 37,000  Level FlightAware
06:12PM 33.6870 -79.4570 31° Northeast 561 646 37,000  Level FlightAware
06:13PM 33.7750 -79.3920 32° Northeast 561 646 37,000  Level FlightAware
06:13PM 33.8610 -79.3280 32° Northeast 561 646 37,000  Level FlightAware
06:14PM 33.9580 -79.2550 32° Northeast 561 646 37,000  Level FlightAware
06:15PM 34.0480 -79.1880 32° Northeast 559 643 37,000  Level FlightAware
06:15PM 34.1480 -79.1130 32° Northeast 553 636 37,000  Level FlightAware
06:16PM 34.2340 -79.0490 32° Northeast 554 638 37,000  Level FlightAware
06:17PM 34.3170 -78.9860 32° Northeast 553 636 37,000  Level FlightAware
06:18PM 34.4640 -78.8750 32° Northeast 548 631 37,000  Level FlightAware
06:19PM 34.5620 -78.8000 32° Northeast 549 632 37,000  Level FlightAware
06:19PM 34.6440 -78.7380 32° Northeast 551 634 37,000  Level FlightAware
06:20PM 34.6800 -78.7111 32° Northeast 555 639 37,000  Level Washington Center
06:21PM 34.8203 -78.6025 32° Northeast 555 639 37,000  Level Washington Center
06:22PM 34.9522 -78.5036 32° Northeast 555 639 37,000  Level Washington Center
06:23PM 35.0819 -78.4017 33° Northeast 555 639 37,000  Level Washington Center
06:24PM 35.2117 -78.2994 33° Northeast 555 639 37,000  Level Washington Center
06:25PM 35.3306 -78.2092 33° Northeast 560 644 37,000  Level Washington Center
06:26PM 35.5320 -78.0530 32° Northeast 37,000  Level FlightAware
06:27PM 35.6250 -77.9810 32° Northeast 539 620 37,000  Level FlightAware
06:27PM 35.7110 -77.9130 33° Northeast 537 618 37,000  Level FlightAware
06:28PM 35.7980 -77.8450 32° Northeast 536 617 37,000  Level FlightAware
06:29PM 35.8890 -77.7730 33° Northeast 534 615 37,000  Level FlightAware
06:30PM 35.9730 -77.7060 33° Northeast 536 617 37,000  Level FlightAware
06:31PM 36.0933 -77.5969 33° Northeast 540 621 37,000  Level Washington Center
06:32PM 36.2142 -77.4867 36° Northeast 545 627 37,000  Level Washington Center
06:33PM 36.3306 -77.3736 38° Northeast 540 621 37,000  Level Washington Center
06:34PM 36.4533 -77.2603 37° Northeast 540 621 37,000  Level Washington Center
06:35PM 36.5736 -77.1464 37° Northeast 540 621 37,000  Level Washington Center
06:36PM 36.6919 -77.0322 36° Northeast 535 616 37,000  Level Washington Center
06:37PM 36.8164 -76.9178 36° Northeast 540 621 37,000  Level Washington Center
06:38PM 36.9406 -76.8081 36° Northeast 540 621 37,000  Level Washington Center
06:39PM 37.0583 -76.7031 36° Northeast 540 621 37,000  Level Washington Center
06:40PM 37.2530 -76.5250 37° Northeast 531 611 37,000  Level FlightAware
06:41PM 37.3239 -76.4605 36° Northeast 527 606 37,000  Level FlightAware ADS-B
06:41PM 37.3858 -76.4040 36° Northeast 524 603 37,000  Level FlightAware ADS-B
06:42PM 37.4445 -76.3503 36° Northeast 522 601 37,000  Level FlightAware ADS-B
06:42PM 37.5071 -76.2928 36° Northeast 522 601 37,000  Level FlightAware ADS-B
06:43PM 37.5688 -76.2359 36° Northeast 521 600 37,000  Level FlightAware ADS-B
06:44PM 37.6620 -76.1500 36° Northeast 522 601 37,000  Level FlightAware
06:44PM 37.7437 -76.0739 36° Northeast 521 600 37,000  Level FlightAware ADS-B
06:45PM 37.8331 -75.9909 36° Northeast 526 605 37,000  Level FlightAware ADS-B
06:46PM 37.8940 -75.9342 36° Northeast 527 606 37,000  Level FlightAware ADS-B
06:46PM 37.9760 -75.8580 36° Northeast 519 597 37,000  Level FlightAware
06:47PM 38.0563 -75.7826 36° Northeast 513 590 37,000  Level FlightAware ADS-B
06:47PM 38.1147 -75.7280 36° Northeast 509 586 37,000  Level FlightAware ADS-B
06:48PM 38.1732 -75.6729 37° Northeast 513 590 37,000  Level FlightAware ADS-B
06:48PM 38.2220 -75.6270 36° Northeast 518 596 37,000  Level FlightAware
06:49PM 38.2786 -75.5743 36° Northeast 518 596 37,000  Level FlightAware ADS-B
06:49PM 38.3306 -75.5317 33° Northeast 515 593 37,000  Level FlightAware ADS-B
06:50PM 38.3931 -75.4907 27° Northeast 512 589 37,000  Level FlightAware ADS-B
06:50PM 38.4542 -75.4601 21° North 508 585 37,000  Level FlightAware ADS-B
06:51PM 38.5240 -75.4313 18° North 509 586 37,000  Level FlightAware ADS-B
06:51PM 38.6004 -75.3630 35° Northeast 513 590 37,000  Level FlightAware ADS-B
06:52PM 38.6570 -75.2950 43° Northeast 515 593 37,000  Level FlightAware
06:52PM 38.6940 -75.2516 42° Northeast 516 594 37,000  Level FlightAware ADS-B
06:53PM 38.7467 -75.1891 43° Northeast 519 597 37,000  Level FlightAware ADS-B
06:54PM 38.8289 -75.0914 43° Northeast 519 597 37,000 60 Level FlightAware ADS-B
06:54PM 38.8843 -75.0251 43° Northeast 519 597 37,100  Climbing FlightAware ADS-B
06:55PM 38.9402 -74.9579 43° Northeast 519 597 37,000 -120 Descending FlightAware ADS-B
06:55PM 38.9928 -74.8947 43° Northeast 519 597 37,000  Level FlightAware ADS-B
06:56PM 39.0455 -74.8314 43° Northeast 518 596 37,000  Level FlightAware ADS-B
06:56PM 39.1007 -74.7649 43° Northeast 518 596 37,000  Level FlightAware ADS-B
06:57PM 39.1575 -74.6966 43° Northeast 519 597 37,000  Level FlightAware ADS-B
06:57PM 39.2102 -74.6331 43° Northeast 520 598 37,000  Level FlightAware ADS-B
06:58PM 39.2659 -74.5659 43° Northeast 521 600 37,000  Level FlightAware ADS-B
06:58PM 39.3231 -74.4967 43° Northeast 523 602 37,000  Level FlightAware ADS-B
06:59PM 39.3761 -74.4323 43° Northeast 525 604 37,000  Level FlightAware ADS-B
06:59PM 39.4314 -74.3650 43° Northeast 527 606 37,000  Level FlightAware ADS-B
07:00PM 39.4856 -74.2989 43° Northeast 529 609 37,000  Level FlightAware ADS-B
07:00PM 39.5395 -74.2329 43° Northeast 529 609 37,000  Level FlightAware ADS-B
07:01PM 39.5937 -74.1665 43° Northeast 531 611 37,000  Level FlightAware ADS-B
07:01PM 39.6481 -74.0998 43° Northeast 530 610 37,000  Level FlightAware ADS-B
07:02PM 39.7037 -74.0314 43° Northeast 532 612 37,000  Level FlightAware ADS-B
07:02PM 39.7614 -73.9604 43° Northeast 533 613 37,000  Level FlightAware ADS-B
07:03PM 39.8235 -73.8835 44° Northeast 533 613 37,000  Level FlightAware ADS-B
07:04PM 39.8866 -73.8052 44° Northeast 533 613 37,000  Level FlightAware ADS-B
07:04PM 39.9414 -73.7372 44° Northeast 533 613 37,000  Level FlightAware ADS-B
07:05PM 39.9950 -73.6705 44° Northeast 532 612 37,000  Level FlightAware ADS-B
07:05PM 40.0545 -73.5961 44° Northeast 532 612 37,000 -480 Level FlightAware ADS-B
07:06PM 40.1117 -73.5246 44° Northeast 533 613 36,500 -960 Descending FlightAware ADS-B
07:06PM 40.1689 -73.4528 44° Northeast 528 608 36,000 -900 Descending FlightAware ADS-B
07:07PM 40.2239 -73.3836 44° Northeast 530 610 35,600 -900 Descending FlightAware ADS-B
07:08PM 40.3223 -73.2595 44° Northeast 530 610 34,700 -1,020 Descending FlightAware ADS-B
07:08PM 40.3748 -73.1972 42° Northeast 526 605 34,200 -1,080 Descending FlightAware ADS-B
07:09PM 40.4498 -73.1220 37° Northeast 525 604 33,500 -1,020 Descending FlightAware ADS-B
07:10PM 40.5600 -73.0130 37° Northeast 517 595 32,600 -960 Descending FlightAware
07:10PM 40.5951 -72.9771 38° Northeast 520 598 32,300 -960 Descending FlightAware ADS-B
07:11PM 40.6579 -72.9144 37° Northeast 523 602 31,800 -960 Descending FlightAware ADS-B
07:11PM 40.7154 -72.8567 37° Northeast 519 597 31,300 -1,200 Descending FlightAware ADS-B
07:12PM 40.7733 -72.7986 37° Northeast 514 592 30,600 -1,980 Descending FlightAware ADS-B
07:12PM 40.8316 -72.7399 37° Northeast 501 577 29,300 -2,400 Descending FlightAware ADS-B
07:13PM 40.8888 -72.6822 37° Northeast 489 563 28,100 -2,520 Descending FlightAware ADS-B
07:13PM 40.9465 -72.6239 37° Northeast 496 571 26,700 -2,280 Descending FlightAware ADS-B
07:14PM 41.0330 -72.5360 37° Northeast 499 574 25,000 -1,800 Descending FlightAware
07:15PM 41.1300 -72.4380 37° Northeast 498 573 23,600 -1,620 Descending FlightAware
07:16PM 41.2125 -72.3519 59° Northeast 496 571 22,300 -1,500 Descending Boston Center
07:17PM 41.3061 -72.2606 60° Northeast 471 542 21,000 -1,680 Descending Boston Center
07:18PM 41.4270 -72.1050 40° Northeast 350 403 17,800 -2,100 Descending FlightAware
07:19PM 41.4650 -72.0190 59° Northeast 338 389 15,900 -2,400 Descending FlightAware
07:20PM 41.5070 -71.9260 59° Northeast 327 376 13,800 -1,980 Descending FlightAware
07:22PM 41.5800 -71.7590 60° Northeast 317 365 11,000 -1,620 Descending FlightAware
07:22PM 41.5772 -71.7658 17° North 315 362 11,300 -180 Climbing Boston Center
07:23PM 41.6540 -71.5900 60° Northeast 312 359 10,700 -300 Descending FlightAware
07:24PM 41.6940 -71.4980 60° Northeast 402 463 10,700  Level FlightAware
07:25PM 41.7320 -71.4120 59° Northeast 402 463 10,700  Level FlightAware
07:25PM 41.7510 -71.3810 51° Northeast 405 466 10,700  Level FlightAware
07:25PM 41.7730 -71.3620 33° Northeast 403 464 10,700  Level FlightAware
07:26PM 41.8460 -71.3150 26° Northeast 401 461 10,700 -480 Level FlightAware
07:27PM 41.9160 -71.2860 17° North 354 407 10,100 -960 Descending FlightAware
07:27PM 41.9570 -71.2700 16° North 318 366 9,600 -1,200 Descending FlightAware
07:28PM 41.9890 -71.2590 14° North 300 345 9,000 -1,800 Descending FlightAware
07:28PM 42.0080 -71.2510 17° North 296 341 8,400 -2,280 Descending FlightAware
07:28PM 42.0410 -71.2390 15° North 293 337 7,500 -2,220 Descending FlightAware
07:29PM 42.0760 -71.2260 15° North 290 334 6,400 -2,100 Descending FlightAware
07:29PM 42.1070 -71.2050 27° Northeast 286 329 5,400 -1,920 Descending FlightAware
07:30PM 42.1390 -71.1790 31° Northeast 272 313 4,500 -1,800 Descending FlightAware
07:30PM 42.1660 -71.1570 31° Northeast 262 302 3,800 -1,440 Descending FlightAware
07:31PM 42.1950 -71.1330 32° Northeast 235 270 3,200 -1,020 Descending FlightAware
07:31PM 42.2160 -71.1150 32° Northeast 214 246 2,900 -1,020 Descending FlightAware
07:32PM 42.2380 -71.0970 31° Northeast 176 203 2,300 -1,080 Descending FlightAware
07:32PM 42.2667 -71.0667 31° Northeast 154 177 1,900 -780 Descending KA90
07:33PM 42.3000 -71.0500 20° North 136 157 1,200 -720 Descending KA90
07:34PM 42.3333 -71.0333 20° North 137 158 600 7,020 Descending KA90
07:36PM 42.3806 -70.9842 38° Northeast 136 157 20,000 6,960 Climbing Boston Center
07:37PM 42.4117 -70.9639 26° Northeast 136 157 20,000  Level Boston Center